createdAt,value
2018-11-06T00:00:52.956Z,4.33
2018-11-06T00:03:32.810Z,4.20
2018-11-06T00:06:07.814Z,4.20
2018-11-06T00:08:42.553Z,3.83
2018-11-06T00:11:17.208Z,4.63
2018-11-06T00:13:52.275Z,4.77
2018-11-06T00:16:26.963Z,4.27
2018-11-06T00:19:01.632Z,4.80
2018-11-06T00:21:36.272Z,4.20
2018-11-06T00:24:10.958Z,4.70
2018-11-06T00:26:45.630Z,4.37
2018-11-06T00:29:20.477Z,4.63
2018-11-06T00:31:56.015Z,4.73
2018-11-06T00:34:30.629Z,4.23
2018-11-06T00:37:05.542Z,4.30
2018-11-06T00:39:39.984Z,4.40
2018-11-06T00:42:14.666Z,4.30
2018-11-06T00:44:49.772Z,4.93
2018-11-06T00:47:24.449Z,4.60
2018-11-06T00:49:58.876Z,4.77
2018-11-06T00:52:33.589Z,4.33
2018-11-06T00:55:08.736Z,4.60
2018-11-06T00:57:44.176Z,5.00
2018-11-06T01:00:19.647Z,4.70
2018-11-06T01:02:54.784Z,5.27
2018-11-06T01:05:29.383Z,4.87
2018-11-06T01:08:04.469Z,6.10
2018-11-06T01:10:39.153Z,6.30
2018-11-06T01:13:13.689Z,7.27
2018-11-06T01:15:48.364Z,6.77
2018-11-06T01:18:22.903Z,6.90
2018-11-06T01:20:57.572Z,6.80
2018-11-06T01:23:32.407Z,8.10
2018-11-06T01:26:07.768Z,6.83
2018-11-06T01:28:42.852Z,7.03
2018-11-06T01:31:17.656Z,6.43
2018-11-06T01:33:51.976Z,6.50
2018-11-06T01:36:26.264Z,6.17
2018-11-06T01:39:02.552Z,6.23
2018-11-06T01:41:37.231Z,6.40
2018-11-06T01:44:12.120Z,5.90
2018-11-06T01:46:47.228Z,5.87
2018-11-06T01:49:21.490Z,5.77
2018-11-06T01:51:55.953Z,6.53
2018-11-06T01:54:31.237Z,6.73
2018-11-06T01:57:06.364Z,6.43
2018-11-06T01:59:40.953Z,8.23
2018-11-06T02:02:15.352Z,5.33
2018-11-06T02:04:50.036Z,5.30
2018-11-06T02:07:24.692Z,5.80
2018-11-06T02:10:00.313Z,5.37
2018-11-06T02:12:35.059Z,5.00
2018-11-06T02:15:09.980Z,5.43
2018-11-06T02:17:45.549Z,5.00
2018-11-06T02:20:22.204Z,5.40
2018-11-06T02:22:56.836Z,5.23
2018-11-06T02:25:32.309Z,5.33
2018-11-06T02:28:07.123Z,4.90
2018-11-06T02:30:41.437Z,5.27
2018-11-06T02:33:15.926Z,5.20
2018-11-06T02:35:50.697Z,5.13
2018-11-06T02:38:25.024Z,5.30
2018-11-06T02:40:59.643Z,5.30
2018-11-06T02:43:34.317Z,5.97
2018-11-06T02:46:09.155Z,5.03
2018-11-06T02:48:43.660Z,5.47
2018-11-06T02:51:18.004Z,5.07
2018-11-06T02:53:52.767Z,4.90
2018-11-06T02:56:27.110Z,5.37
2018-11-06T02:59:01.930Z,4.90
2018-11-06T03:01:36.969Z,5.47
2018-11-06T03:04:11.499Z,5.10
2018-11-06T03:06:46.012Z,7.20
2018-11-06T03:09:20.627Z,5.20
2018-11-06T03:11:55.335Z,5.20
2018-11-06T03:14:29.804Z,5.67
2018-11-06T03:17:05.944Z,4.77
2018-11-06T03:19:41.020Z,5.37
2018-11-06T03:22:15.775Z,5.30
2018-11-06T03:24:50.604Z,4.83
2018-11-06T03:27:25.353Z,4.60
2018-11-06T03:30:00.694Z,4.67
2018-11-06T03:32:35.118Z,5.57
2018-11-06T03:35:12.012Z,4.87
2018-11-06T03:37:46.437Z,5.20
2018-11-06T03:40:20.863Z,4.80
2018-11-06T03:42:55.774Z,4.93
2018-11-06T03:45:30.370Z,4.80
2018-11-06T03:48:05.428Z,4.93
2018-11-06T03:50:39.946Z,4.90
2018-11-06T03:53:15.148Z,5.00
2018-11-06T03:55:50.017Z,5.17
2018-11-06T03:58:24.729Z,5.17
2018-11-06T04:00:59.374Z,5.10
2018-11-06T04:03:33.805Z,5.13
2018-11-06T04:06:08.376Z,5.27
2018-11-06T04:08:43.161Z,6.10
2018-11-06T04:11:18.353Z,5.00
2018-11-06T04:13:52.883Z,5.40
2018-11-06T04:16:27.332Z,5.10
2018-11-06T04:19:01.886Z,4.90
2018-11-06T04:21:40.409Z,5.27
2018-11-06T04:24:15.152Z,5.30
2018-11-06T04:26:49.900Z,5.27
2018-11-06T04:29:24.609Z,4.97
2018-11-06T04:31:59.329Z,4.40
2018-11-06T04:34:33.700Z,5.33
2018-11-06T04:37:08.432Z,4.87
2018-11-06T04:39:43.408Z,5.33
2018-11-06T04:42:18.511Z,5.00
2018-11-06T04:44:53.807Z,5.27
2018-11-06T04:47:29.633Z,4.80
2018-11-06T04:50:04.157Z,5.73
2018-11-06T04:52:39.227Z,5.10
2018-11-06T04:55:14.491Z,5.33
2018-11-06T04:57:48.860Z,5.47
2018-11-06T05:00:23.500Z,5.30
2018-11-06T05:02:58.040Z,5.67
2018-11-06T05:05:32.602Z,7.33
2018-11-06T05:08:11.107Z,5.50
2018-11-06T05:10:45.772Z,5.40
2018-11-06T05:13:21.114Z,5.33
2018-11-06T05:15:56.180Z,5.27
2018-11-06T05:18:30.528Z,5.50
2018-11-06T05:21:06.318Z,5.73
2018-11-06T05:23:41.141Z,5.83
2018-11-06T05:26:15.768Z,5.30
2018-11-06T05:28:50.229Z,5.50
2018-11-06T05:31:24.799Z,5.40
2018-11-06T05:33:59.529Z,6.60
2018-11-06T05:36:34.228Z,5.83
2018-11-06T05:39:10.872Z,5.60
2018-11-06T05:41:45.792Z,6.17
2018-11-06T05:44:20.305Z,6.40
2018-11-06T05:46:55.196Z,5.87
2018-11-06T05:49:29.593Z,5.80
2018-11-06T05:52:04.196Z,6.47
2018-11-06T05:54:40.322Z,6.17
2018-11-06T05:57:14.832Z,6.07
2018-11-06T05:59:49.671Z,5.97
2018-11-06T06:02:24.423Z,8.10
2018-11-06T06:04:59.429Z,6.43
2018-11-06T06:07:39.230Z,9.10
2018-11-06T06:13:44.895Z,8.97
2018-11-06T06:16:19.457Z,8.23
2018-11-06T06:18:54.390Z,8.97
2018-11-06T06:21:28.840Z,11.73
2018-11-06T06:24:03.612Z,7.80
2018-11-06T06:26:37.934Z,6.50
2018-11-06T06:29:12.355Z,9.57
2018-11-06T06:31:46.912Z,8.80
2018-11-06T06:34:21.589Z,11.23
2018-11-06T06:36:56.783Z,8.40
2018-11-06T06:39:31.641Z,5.90
2018-11-06T06:42:06.550Z,6.40
2018-11-06T06:44:41.481Z,6.57
2018-11-06T06:47:15.815Z,6.23
2018-11-06T06:49:50.728Z,6.43
2018-11-06T06:52:25.036Z,5.73
2018-11-06T06:55:00.553Z,10.13
2018-11-06T06:57:35.500Z,6.00
2018-11-06T07:00:12.610Z,5.60
2018-11-06T07:02:47.549Z,6.50
2018-11-06T07:05:23.382Z,4.93
2018-11-06T07:07:57.720Z,7.10
2018-11-06T07:10:33.678Z,6.67
2018-11-06T07:13:08.284Z,5.33
2018-11-06T07:15:43.104Z,4.97
2018-11-06T07:18:17.729Z,5.27
2018-11-06T07:20:52.406Z,7.83
2018-11-06T07:23:27.201Z,5.10
2018-11-06T07:26:01.836Z,6.60
2018-11-06T07:28:36.701Z,5.50
2018-11-06T07:31:11.388Z,5.80
2018-11-06T07:33:46.464Z,5.73
2018-11-06T07:36:20.910Z,5.00
2018-11-06T07:38:55.335Z,6.27
2018-11-06T07:41:29.652Z,7.40
2018-11-06T07:44:04.521Z,4.90
2018-11-06T07:46:39.061Z,5.07
2018-11-06T07:49:13.569Z,4.20
2018-11-06T07:51:48.061Z,4.97
2018-11-06T07:54:22.544Z,4.73
2018-11-06T07:56:56.973Z,5.00
2018-11-06T07:59:31.664Z,4.20
2018-11-06T08:02:07.414Z,3.80
2018-11-06T08:04:41.915Z,5.60
2018-11-06T08:07:16.524Z,3.90
2018-11-06T08:09:51.516Z,4.87
2018-11-06T08:12:27.085Z,5.13
2018-11-06T08:15:01.824Z,6.37
2018-11-06T08:17:36.930Z,4.07
2018-11-06T08:20:11.477Z,3.53
2018-11-06T08:22:45.869Z,2.90
2018-11-06T08:25:20.540Z,3.67
2018-11-06T08:27:55.042Z,5.60
2018-11-06T08:30:29.817Z,2.63
2018-11-06T08:33:04.926Z,4.40
2018-11-06T08:35:39.567Z,2.83
2018-11-06T08:38:13.958Z,3.23
2018-11-06T08:40:49.119Z,2.60
2018-11-06T08:43:23.778Z,6.23
2018-11-06T08:45:58.684Z,2.67
2018-11-06T08:48:33.168Z,2.87
2018-11-06T08:51:07.899Z,2.40
2018-11-06T08:53:42.772Z,2.30
2018-11-06T08:56:17.541Z,3.03
2018-11-06T08:58:51.945Z,3.20
2018-11-06T09:01:26.494Z,2.03
2018-11-06T09:04:01.018Z,2.83
2018-11-06T09:06:35.553Z,2.03
2018-11-06T09:09:10.973Z,2.90
2018-11-06T09:11:45.819Z,3.30
2018-11-06T09:14:20.584Z,3.60
2018-11-06T09:16:55.228Z,5.03
2018-11-06T09:19:30.271Z,3.43
2018-11-06T09:22:05.277Z,2.73
2018-11-06T09:24:40.941Z,2.30
2018-11-06T09:27:15.788Z,3.40
2018-11-06T09:29:50.349Z,1.67
2018-11-06T09:32:24.996Z,2.47
2018-11-06T09:34:59.723Z,1.83
2018-11-06T09:37:35.636Z,3.53
2018-11-06T09:40:12.465Z,2.20
2018-11-06T09:42:46.938Z,2.03
2018-11-06T09:45:21.693Z,2.20
2018-11-06T09:47:56.737Z,1.60
2018-11-06T09:50:31.922Z,4.27
2018-11-06T09:53:06.497Z,1.40
2018-11-06T09:55:41.057Z,1.40
2018-11-06T09:58:16.149Z,1.50
2018-11-06T10:00:51.579Z,3.03
2018-11-06T10:03:26.497Z,2.23
2018-11-06T10:06:00.916Z,4.17
2018-11-06T10:08:35.900Z,2.63
2018-11-06T10:11:10.737Z,1.40
2018-11-06T10:13:45.088Z,2.70
2018-11-06T10:16:19.409Z,1.60
2018-11-06T10:18:53.811Z,2.10
2018-11-06T10:21:28.953Z,3.00
2018-11-06T10:24:03.661Z,3.17
2018-11-06T10:26:38.729Z,8.27
2018-11-06T10:29:13.121Z,2.77
2018-11-06T10:31:47.505Z,2.03
2018-11-06T10:34:21.862Z,1.97
2018-11-06T10:36:56.917Z,1.97
2018-11-06T10:39:31.545Z,1.80
2018-11-06T10:42:06.586Z,5.30
2018-11-06T10:44:41.164Z,1.53
2018-11-06T10:47:15.674Z,3.20
2018-11-06T10:49:50.259Z,1.40
2018-11-06T10:52:24.650Z,2.00
2018-11-06T10:54:59.869Z,1.60
2018-11-06T10:57:34.944Z,2.50
2018-11-06T11:00:16.265Z,3.23
2018-11-06T11:02:55.930Z,2.00
2018-11-06T11:05:30.866Z,1.50
2018-11-06T11:08:05.417Z,2.03
2018-11-06T11:10:39.782Z,3.00
2018-11-06T11:13:14.487Z,2.43
2018-11-06T11:15:49.162Z,2.93
2018-11-06T11:18:23.663Z,3.10
2018-11-06T11:20:59.069Z,1.53
2018-11-06T11:23:33.425Z,1.40
2018-11-06T11:26:08.401Z,2.23
2018-11-06T11:28:42.756Z,1.90
2018-11-06T11:31:17.600Z,1.57
2018-11-06T11:33:52.234Z,1.57
2018-11-06T11:36:26.888Z,1.50
2018-11-06T11:39:01.700Z,2.67
2018-11-06T11:41:36.520Z,1.40
2018-11-06T11:44:11.025Z,2.83
2018-11-06T11:46:45.526Z,1.67
2018-11-06T11:49:20.088Z,2.33
2018-11-06T11:51:54.605Z,2.40
2018-11-06T11:54:29.377Z,3.10
2018-11-06T11:57:04.241Z,2.13
2018-11-06T11:59:39.019Z,1.83
2018-11-06T12:02:13.551Z,1.80
2018-11-06T12:04:52.218Z,1.97
2018-11-06T12:07:26.904Z,2.73
2018-11-06T12:10:01.324Z,1.57
2018-11-06T12:12:35.873Z,2.10
2018-11-06T12:15:13.724Z,3.03
2018-11-06T12:17:48.582Z,4.53
2018-11-06T12:20:23.100Z,2.13
2018-11-06T12:22:57.863Z,2.10
2018-11-06T12:25:32.428Z,3.33
2018-11-06T12:28:07.249Z,2.67
2018-11-06T12:30:41.933Z,2.43
2018-11-06T12:33:17.101Z,4.63
2018-11-06T12:35:52.112Z,4.90
2018-11-06T12:38:26.525Z,2.60
2018-11-06T12:41:01.281Z,2.17
2018-11-06T12:43:36.228Z,1.40
2018-11-06T12:46:11.133Z,1.43
2018-11-06T12:48:45.781Z,1.77
2018-11-06T12:51:20.310Z,1.73
2018-11-06T12:53:58.635Z,1.67
2018-11-06T12:56:39.900Z,1.23
2018-11-06T12:59:14.590Z,1.50
2018-11-06T13:01:49.036Z,2.23
2018-11-06T13:04:23.679Z,2.23
2018-11-06T13:06:58.028Z,7.50
2018-11-06T13:09:33.265Z,1.93
2018-11-06T13:12:08.130Z,2.57
2018-11-06T13:14:43.712Z,3.03
2018-11-06T13:17:18.537Z,2.17
2018-11-06T13:19:53.805Z,0.80
2018-11-06T13:22:28.564Z,2.27
2018-11-06T13:25:03.392Z,2.07
2018-11-06T13:27:39.508Z,1.37
2018-11-06T13:30:18.338Z,1.00
2018-11-06T13:32:53.441Z,1.53
2018-11-06T13:35:27.802Z,1.17
2018-11-06T13:38:02.927Z,2.00
2018-11-06T13:40:37.477Z,1.27
2018-11-06T13:43:11.868Z,1.47
2018-11-06T13:45:46.827Z,1.00
2018-11-06T13:48:21.409Z,1.30
2018-11-06T13:50:55.881Z,1.30
2018-11-06T13:53:30.856Z,2.13
2018-11-06T13:56:06.269Z,1.30
2018-11-06T13:58:49.363Z,3.17
2018-11-06T14:01:24.097Z,1.27
2018-11-06T14:04:00.572Z,2.10
2018-11-06T14:06:35.565Z,2.07
2018-11-06T14:09:11.220Z,3.37
2018-11-06T14:11:45.781Z,2.00
2018-11-06T14:14:20.400Z,1.10
2018-11-06T14:16:54.985Z,3.27
2018-11-06T14:19:29.390Z,2.00
2018-11-06T14:22:03.942Z,2.40
2018-11-06T14:24:38.388Z,1.43
2018-11-06T14:27:12.992Z,1.63
2018-11-06T14:29:48.006Z,1.40
2018-11-06T14:32:22.611Z,2.40
2018-11-06T14:34:57.009Z,2.40
2018-11-06T14:37:31.857Z,1.53
2018-11-06T14:40:07.781Z,2.23
2018-11-06T14:42:43.347Z,2.03
2018-11-06T14:45:19.750Z,3.60
2018-11-06T14:48:00.967Z,3.57
2018-11-06T14:50:35.880Z,1.63
2018-11-06T14:53:10.645Z,1.57
2018-11-06T14:55:45.382Z,4.10
2018-11-06T14:58:20.544Z,4.13
2018-11-06T15:00:55.005Z,2.27
2018-11-06T15:03:29.622Z,1.53
2018-11-06T15:06:04.918Z,2.83
2018-11-06T15:08:39.311Z,4.13
2018-11-06T15:11:13.741Z,2.40
2018-11-06T15:13:48.183Z,4.90
2018-11-06T15:16:23.110Z,4.37
2018-11-06T15:18:58.231Z,2.90
2018-11-06T15:21:33.077Z,1.97
2018-11-06T15:24:07.717Z,2.87
2018-11-06T15:26:42.560Z,2.23
2018-11-06T15:29:17.004Z,1.50
2018-11-06T15:31:51.789Z,3.10
2018-11-06T15:34:26.489Z,3.10
2018-11-06T15:37:00.966Z,1.93
2018-11-06T15:39:35.334Z,2.00
2018-11-06T15:42:09.927Z,18.47
2018-11-06T15:44:44.521Z,2.73
2018-11-06T15:47:18.820Z,2.90
2018-11-06T15:49:53.536Z,7.07
2018-11-06T15:52:28.035Z,2.33
2018-11-06T15:55:03.480Z,2.60
2018-11-06T15:57:38.469Z,2.73
2018-11-06T16:00:16.313Z,4.70
2018-11-06T16:02:52.037Z,3.77
2018-11-06T16:05:26.721Z,3.57
2018-11-06T16:08:01.665Z,2.80
2018-11-06T16:10:36.360Z,3.03
2018-11-06T16:13:10.726Z,2.83
2018-11-06T16:15:45.105Z,3.87
2018-11-06T16:18:19.533Z,3.93
2018-11-06T16:20:55.194Z,4.33
2018-11-06T16:23:30.480Z,3.70
2018-11-06T16:26:05.400Z,6.83
2018-11-06T16:28:39.961Z,4.37
2018-11-06T16:31:14.773Z,3.90
2018-11-06T16:33:49.665Z,4.80
2018-11-06T16:36:24.687Z,5.50
2018-11-06T16:38:59.047Z,7.13
2018-11-06T16:41:33.774Z,4.97
2018-11-06T16:44:09.277Z,7.80
2018-11-06T16:46:44.118Z,7.27
2018-11-06T16:49:18.665Z,10.13
2018-11-06T16:51:54.688Z,10.17
2018-11-06T16:54:29.133Z,7.03
2018-11-06T16:57:03.687Z,7.00
2018-11-06T16:59:48.646Z,7.20
2018-11-06T17:02:23.478Z,10.20
2018-11-06T17:04:57.753Z,8.03
2018-11-06T17:07:32.156Z,10.73
2018-11-06T17:10:08.653Z,8.57
2018-11-06T17:12:43.388Z,10.13
2018-11-06T17:15:19.827Z,8.33
2018-11-06T17:17:54.881Z,10.23
2018-11-06T17:20:29.317Z,8.50
2018-11-06T17:23:04.325Z,8.30
2018-11-06T17:25:40.805Z,8.37
2018-11-06T17:28:19.303Z,6.90
2018-11-06T17:30:54.142Z,9.17
2018-11-06T17:33:28.884Z,10.60
2018-11-06T17:36:03.889Z,14.30
2018-11-06T17:38:38.832Z,10.43
2018-11-06T17:41:13.549Z,12.70
2018-11-06T17:43:48.127Z,13.07
2018-11-06T17:46:23.112Z,11.47
2018-11-06T17:49:00.333Z,12.37
2018-11-06T17:54:13.340Z,14.83
2018-11-06T17:56:47.745Z,9.33
2018-11-06T17:59:22.129Z,9.00
2018-11-06T18:01:56.747Z,10.23
2018-11-06T18:04:31.262Z,9.57
2018-11-06T18:07:06.265Z,10.37
2018-11-06T18:09:40.777Z,8.73
2018-11-06T18:12:15.232Z,11.43
2018-11-06T18:14:49.535Z,11.30
2018-11-06T18:17:24.327Z,9.37
2018-11-06T18:19:59.510Z,11.73
2018-11-06T18:22:34.567Z,11.97
2018-11-06T18:25:09.665Z,16.70
2018-11-06T18:27:44.336Z,12.47
2018-11-06T18:30:19.320Z,13.13
2018-11-06T18:32:54.085Z,21.20
2018-11-06T18:35:28.635Z,17.77
2018-11-06T18:38:03.083Z,26.30
2018-11-06T18:40:37.383Z,43.20
2018-11-06T18:43:12.029Z,43.23
2018-11-06T18:45:46.448Z,44.00
2018-11-06T18:48:21.146Z,45.33
2018-11-06T18:50:55.877Z,30.83
2018-11-06T18:53:30.756Z,36.30
2018-11-06T18:56:09.128Z,20.07
2018-11-06T18:58:43.684Z,20.90
2018-11-06T19:01:18.168Z,10.10
2018-11-06T19:03:52.785Z,6.67
2018-11-06T19:06:27.748Z,10.50
2018-11-06T19:09:02.506Z,6.07
2018-11-06T19:11:37.436Z,5.33
2018-11-06T19:14:12.336Z,4.43
2018-11-06T19:16:46.759Z,4.60
2018-11-06T19:19:22.791Z,8.23
2018-11-06T19:21:58.510Z,5.07
2018-11-06T19:24:32.893Z,3.93
2018-11-06T19:27:07.376Z,4.20
2018-11-06T19:29:42.376Z,3.63
2018-11-06T19:32:18.126Z,4.20
2018-11-06T19:34:53.214Z,3.90
2018-11-06T19:37:29.099Z,3.87
2018-11-06T19:40:03.973Z,5.43
2018-11-06T19:42:39.970Z,4.10
2018-11-06T19:45:14.777Z,6.07
2018-11-06T19:47:49.509Z,5.33
2018-11-06T19:50:24.010Z,4.93
2018-11-06T19:52:58.780Z,4.50
2018-11-06T19:55:33.585Z,4.73
2018-11-06T19:58:07.499Z,4.83
2018-11-06T20:00:42.224Z,9.43
2018-11-06T20:03:17.450Z,8.00
2018-11-06T20:05:52.398Z,7.27
2018-11-06T20:08:27.512Z,7.27
2018-11-06T20:11:01.912Z,6.53
2018-11-06T20:13:36.290Z,6.07
2018-11-06T20:16:11.068Z,5.10
2018-11-06T20:18:45.457Z,6.57
2018-11-06T20:21:26.868Z,5.40
2018-11-06T20:24:04.719Z,5.30
2018-11-06T20:26:40.090Z,6.10
2018-11-06T20:29:15.177Z,5.53
2018-11-06T20:31:49.974Z,5.37
2018-11-06T20:34:24.701Z,5.70
2018-11-06T20:37:00.031Z,5.43
2018-11-06T20:39:34.335Z,6.20
2018-11-06T20:42:09.082Z,4.53
2018-11-06T20:44:43.728Z,10.23
2018-11-06T20:47:18.366Z,7.90
2018-11-06T20:49:53.672Z,6.00
2018-11-06T20:52:28.384Z,4.93
2018-11-06T20:55:03.094Z,6.23
2018-11-06T20:57:37.616Z,6.07
2018-11-06T21:00:18.330Z,7.10
2018-11-06T21:02:53.931Z,5.17
2018-11-06T21:05:28.794Z,8.27
2018-11-06T21:08:10.644Z,5.77
2018-11-06T21:10:45.960Z,5.83
2018-11-06T21:13:21.117Z,6.00
2018-11-06T21:15:58.912Z,6.63
2018-11-06T21:18:33.938Z,5.47
2018-11-06T21:21:09.247Z,6.37
2018-11-06T21:23:44.515Z,8.83
2018-11-06T21:26:19.231Z,7.57
2018-11-06T21:28:55.014Z,8.00
2018-11-06T21:31:29.810Z,6.77
2018-11-06T21:34:04.890Z,6.83
2018-11-06T21:36:39.548Z,8.47
2018-11-06T21:39:14.350Z,7.47
2018-11-06T21:41:49.229Z,10.33
2018-11-06T21:44:24.248Z,6.73
2018-11-06T21:46:59.277Z,7.60
2018-11-06T21:49:33.801Z,8.53
2018-11-06T21:52:08.585Z,7.23
2018-11-06T21:54:44.390Z,7.33
2018-11-06T21:57:19.324Z,7.70
2018-11-06T21:59:53.812Z,7.60
2018-11-06T22:02:28.787Z,8.30
2018-11-06T22:05:03.197Z,8.67
2018-11-06T22:07:37.614Z,8.47
2018-11-06T22:10:13.300Z,9.10
2018-11-06T22:12:47.852Z,10.13
2018-11-06T22:15:22.510Z,9.20
2018-11-06T22:17:57.229Z,8.13
2018-11-06T22:20:31.529Z,9.17
2018-11-06T22:23:06.645Z,10.60
2018-11-06T22:25:41.133Z,12.17
2018-11-06T22:28:15.557Z,11.53
2018-11-06T22:30:50.026Z,9.67
2018-11-06T22:33:25.069Z,10.90
2018-11-06T22:35:59.980Z,10.67
2018-11-06T22:38:34.786Z,12.13
2018-11-06T22:41:09.683Z,14.37
2018-11-06T22:43:44.306Z,11.67
2018-11-06T22:46:18.728Z,12.30
2018-11-06T22:48:52.989Z,12.27
2018-11-06T22:51:27.873Z,11.60
2018-11-06T22:54:02.588Z,11.50
2018-11-06T22:56:37.061Z,11.67
2018-11-06T22:59:12.114Z,11.47
2018-11-06T23:01:47.381Z,13.17
2018-11-06T23:04:23.510Z,12.17
2018-11-06T23:06:58.195Z,17.50
2018-11-06T23:09:32.723Z,11.80
2018-11-06T23:12:07.534Z,11.87
2018-11-06T23:14:42.373Z,10.90
2018-11-06T23:17:17.285Z,11.77
2018-11-06T23:19:52.058Z,11.93
2018-11-06T23:22:26.541Z,11.10
2018-11-06T23:25:00.968Z,11.67
2018-11-06T23:27:36.014Z,11.53
2018-11-06T23:30:12.637Z,12.83
2018-11-06T23:32:47.113Z,14.40
2018-11-06T23:35:21.664Z,11.10
2018-11-06T23:37:56.538Z,11.93
2018-11-06T23:40:30.935Z,13.57
2018-11-06T23:43:05.559Z,11.10
2018-11-06T23:45:40.418Z,10.67
2018-11-06T23:48:14.693Z,10.97
2018-11-06T23:50:49.476Z,11.83
2018-11-06T23:53:23.862Z,10.93
2018-11-06T23:55:58.273Z,11.57
2018-11-06T23:58:32.620Z,11.77
